sensor_id;sensor_type;location;lat;lon;timestamp;temperature;humidity
6462;DHT22;3264;42.862;25.098;2022-09-09T00:00:21;14.70;99.90
6462;DHT22;3264;42.862;25.098;2022-09-09T00:02:56;14.60;99.90
6462;DHT22;3264;42.862;25.098;2022-09-09T00:05:31;14.70;99.90
6462;DHT22;3264;42.862;25.098;2022-09-09T00:08:03;14.80;99.90
6462;DHT22;3264;42.862;25.098;2022-09-09T00:10:51;14.80;99.90
6462;DHT22;3264;42.862;25.098;2022-09-09T00:13:31;14.80;99.90
6462;DHT22;3264;42.862;25.098;2022-09-09T00:16:07;14.80;99.90
6462;DHT22;3264;42.862;25.098;2022-09-09T00:18:41;14.80;99.90
6462;DHT22;3264;42.862;25.098;2022-09-09T00:21:13;14.70;99.90
6462;DHT22;3264;42.862;25.098;2022-09-09T00:23:45;14.70;99.90
6462;DHT22;3264;42.862;25.098;2022-09-09T00:26:46;14.60;99.90
6462;DHT22;3264;42.862;25.098;2022-09-09T00:29:22;14.50;99.90
6462;DHT22;3264;42.862;25.098;2022-09-09T00:31:59;14.50;99.90
6462;DHT22;3264;42.862;25.098;2022-09-09T00:34:31;14.50;99.90
6462;DHT22;3264;42.862;25.098;2022-09-09T00:37:03;14.50;99.90
6462;DHT22;3264;42.862;25.098;2022-09-09T00:39:36;14.50;99.90
6462;DHT22;3264;42.862;25.098;2022-09-09T00:42:14;14.50;99.90
6462;DHT22;3264;42.862;25.098;2022-09-09T00:44:58;14.40;99.90
6462;DHT22;3264;42.862;25.098;2022-09-09T00:47:43;14.50;99.90
6462;DHT22;3264;42.862;25.098;2022-09-09T00:50:24;14.60;99.90
6462;DHT22;3264;42.862;25.098;2022-09-09T00:53:05;14.60;99.90
6462;DHT22;3264;42.862;25.098;2022-09-09T00:55:45;14.70;99.90
6462;DHT22;3264;42.862;25.098;2022-09-09T00:58:14;14.70;99.90
6462;DHT22;3264;42.862;25.098;2022-09-09T01:04:09;14.60;99.90
6462;DHT22;3264;42.862;25.098;2022-09-09T01:06:42;14.60;99.90
6462;DHT22;3264;42.862;25.098;2022-09-09T01:09:20;14.60;99.90
6462;DHT22;3264;42.862;25.098;2022-09-09T01:11:59;14.60;99.90
6462;DHT22;3264;42.862;25.098;2022-09-09T01:14:47;14.50;99.90
6462;DHT22;3264;42.862;25.098;2022-09-09T01:21:00;14.60;99.90
6462;DHT22;3264;42.862;25.098;2022-09-09T01:23:43;14.60;99.90
6462;DHT22;3264;42.862;25.098;2022-09-09T01:26:23;14.50;99.90
6462;DHT22;3264;42.862;25.098;2022-09-09T01:28:52;14.40;99.90
6462;DHT22;3264;42.862;25.098;2022-09-09T01:31:26;14.40;99.90
6462;DHT22;3264;42.862;25.098;2022-09-09T01:33:55;14.40;99.90
6462;DHT22;3264;42.862;25.098;2022-09-09T01:36:29;14.40;99.90
6462;DHT22;3264;42.862;25.098;2022-09-09T01:39:01;14.50;99.90
6462;DHT22;3264;42.862;25.098;2022-09-09T01:41:32;14.50;99.90
6462;DHT22;3264;42.862;25.098;2022-09-09T01:47:12;14.50;99.90
6462;DHT22;3264;42.862;25.098;2022-09-09T01:49:40;14.40;99.90
6462;DHT22;3264;42.862;25.098;2022-09-09T01:52:08;14.50;99.90
6462;DHT22;3264;42.862;25.098;2022-09-09T01:54:46;14.50;99.90
6462;DHT22;3264;42.862;25.098;2022-09-09T01:57:18;14.40;99.90
6462;DHT22;3264;42.862;25.098;2022-09-09T02:00:02;14.40;99.90
6462;DHT22;3264;42.862;25.098;2022-09-09T02:02:38;14.40;99.90
6462;DHT22;3264;42.862;25.098;2022-09-09T02:05:18;14.40;99.90
6462;DHT22;3264;42.862;25.098;2022-09-09T02:07:55;14.40;99.90
6462;DHT22;3264;42.862;25.098;2022-09-09T02:10:30;14.40;99.90
6462;DHT22;3264;42.862;25.098;2022-09-09T02:13:04;14.30;99.90
6462;DHT22;3264;42.862;25.098;2022-09-09T02:19:00;14.30;99.90
6462;DHT22;3264;42.862;25.098;2022-09-09T02:25:10;14.30;99.90
6462;DHT22;3264;42.862;25.098;2022-09-09T02:27:45;14.40;99.90
6462;DHT22;3264;42.862;25.098;2022-09-09T02:30:17;14.30;99.90
6462;DHT22;3264;42.862;25.098;2022-09-09T02:32:48;14.40;99.90
6462;DHT22;3264;42.862;25.098;2022-09-09T02:35:21;14.40;99.90
6462;DHT22;3264;42.862;25.098;2022-09-09T02:37:53;14.30;99.90
6462;DHT22;3264;42.862;25.098;2022-09-09T02:40:22;14.30;99.90
6462;DHT22;3264;42.862;25.098;2022-09-09T02:42:50;14.20;99.90
6462;DHT22;3264;42.862;25.098;2022-09-09T02:48:51;14.20;99.90
6462;DHT22;3264;42.862;25.098;2022-09-09T02:51:25;14.20;99.90
6462;DHT22;3264;42.862;25.098;2022-09-09T02:57:12;14.20;99.90
6462;DHT22;3264;42.862;25.098;2022-09-09T02:59:44;14.00;99.90
6462;DHT22;3264;42.862;25.098;2022-09-09T03:02:12;14.00;99.90
6462;DHT22;3264;42.862;25.098;2022-09-09T03:04:42;14.00;99.90
6462;DHT22;3264;42.862;25.098;2022-09-09T03:07:11;13.90;99.90
6462;DHT22;3264;42.862;25.098;2022-09-09T03:09:40;13.90;99.90
6462;DHT22;3264;42.862;25.098;2022-09-09T03:12:08;13.90;99.90
6462;DHT22;3264;42.862;25.098;2022-09-09T03:14:38;13.90;99.90
6462;DHT22;3264;42.862;25.098;2022-09-09T03:17:06;14.00;99.90
6462;DHT22;3264;42.862;25.098;2022-09-09T03:19:36;14.00;99.90
6462;DHT22;3264;42.862;25.098;2022-09-09T03:22:05;14.00;99.90
6462;DHT22;3264;42.862;25.098;2022-09-09T03:24:33;14.00;99.90
6462;DHT22;3264;42.862;25.098;2022-09-09T03:33:39;14.00;99.90
6462;DHT22;3264;42.862;25.098;2022-09-09T03:36:08;14.00;99.90
6462;DHT22;3264;42.862;25.098;2022-09-09T03:38:38;14.00;99.90
6462;DHT22;3264;42.862;25.098;2022-09-09T03:41:06;14.00;99.90
6462;DHT22;3264;42.862;25.098;2022-09-09T03:43:34;14.00;99.90
6462;DHT22;3264;42.862;25.098;2022-09-09T03:46:04;14.00;99.90
6462;DHT22;3264;42.862;25.098;2022-09-09T03:48:33;14.00;99.90
6462;DHT22;3264;42.862;25.098;2022-09-09T03:51:02;14.00;99.90
6462;DHT22;3264;42.862;25.098;2022-09-09T03:53:31;14.00;99.90
6462;DHT22;3264;42.862;25.098;2022-09-09T03:56:00;14.00;99.90
6462;DHT22;3264;42.862;25.098;2022-09-09T03:58:30;14.10;99.90
6462;DHT22;3264;42.862;25.098;2022-09-09T04:00:59;14.10;99.90
6462;DHT22;3264;42.862;25.098;2022-09-09T04:10:11;14.10;99.90
6462;DHT22;3264;42.862;25.098;2022-09-09T04:12:47;14.00;99.90
6462;DHT22;3264;42.862;25.098;2022-09-09T04:15:15;14.10;99.90
6462;DHT22;3264;42.862;25.098;2022-09-09T04:17:45;14.10;99.90
6462;DHT22;3264;42.862;25.098;2022-09-09T04:20:13;14.10;99.90
6462;DHT22;3264;42.862;25.098;2022-09-09T04:22:42;14.20;99.90
6462;DHT22;3264;42.862;25.098;2022-09-09T04:25:13;14.10;99.90
6462;DHT22;3264;42.862;25.098;2022-09-09T04:27:53;14.20;99.90
6462;DHT22;3264;42.862;25.098;2022-09-09T04:30:22;14.20;99.90
6462;DHT22;3264;42.862;25.098;2022-09-09T04:32:49;14.30;99.90
6462;DHT22;3264;42.862;25.098;2022-09-09T04:35:45;14.30;99.90
6462;DHT22;3264;42.862;25.098;2022-09-09T04:38:14;14.40;99.90
6462;DHT22;3264;42.862;25.098;2022-09-09T04:40:43;14.60;99.90
6462;DHT22;3264;42.862;25.098;2022-09-09T04:43:46;14.60;99.90
6462;DHT22;3264;42.862;25.098;2022-09-09T04:46:17;14.70;99.90
6462;DHT22;3264;42.862;25.098;2022-09-09T04:48:48;14.80;99.90
6462;DHT22;3264;42.862;25.098;2022-09-09T04:51:17;14.90;99.90
6462;DHT22;3264;42.862;25.098;2022-09-09T04:53:46;14.80;99.90
6462;DHT22;3264;42.862;25.098;2022-09-09T04:56:16;15.00;99.90
6462;DHT22;3264;42.862;25.098;2022-09-09T04:58:44;15.20;99.90
6462;DHT22;3264;42.862;25.098;2022-09-09T05:01:14;15.40;99.90
6462;DHT22;3264;42.862;25.098;2022-09-09T05:04:07;15.40;99.90
6462;DHT22;3264;42.862;25.098;2022-09-09T05:07:00;15.40;99.90
6462;DHT22;3264;42.862;25.098;2022-09-09T05:09:28;15.70;99.90
6462;DHT22;3264;42.862;25.098;2022-09-09T05:15:13;15.80;99.90
6462;DHT22;3264;42.862;25.098;2022-09-09T05:17:45;15.90;99.90
6462;DHT22;3264;42.862;25.098;2022-09-09T05:30:20;16.20;99.90
6462;DHT22;3264;42.862;25.098;2022-09-09T05:32:52;16.40;99.90
6462;DHT22;3264;42.862;25.098;2022-09-09T05:35:27;16.70;99.90
6462;DHT22;3264;42.862;25.098;2022-09-09T05:37:59;17.00;99.90
6462;DHT22;3264;42.862;25.098;2022-09-09T05:40:28;17.20;99.90
6462;DHT22;3264;42.862;25.098;2022-09-09T05:43:00;17.30;99.90
6462;DHT22;3264;42.862;25.098;2022-09-09T05:45:29;17.40;99.90
6462;DHT22;3264;42.862;25.098;2022-09-09T05:48:00;17.50;99.90
6462;DHT22;3264;42.862;25.098;2022-09-09T05:50:28;17.50;99.90
6462;DHT22;3264;42.862;25.098;2022-09-09T06:00:12;18.40;99.90
6462;DHT22;3264;42.862;25.098;2022-09-09T06:02:41;18.60;99.90
6462;DHT22;3264;42.862;25.098;2022-09-09T06:05:47;18.70;99.90
6462;DHT22;3264;42.862;25.098;2022-09-09T06:08:15;18.80;99.90
6462;DHT22;3264;42.862;25.098;2022-09-09T06:10:46;19.10;99.90
6462;DHT22;3264;42.862;25.098;2022-09-09T06:19:10;19.30;99.90
6462;DHT22;3264;42.862;25.098;2022-09-09T06:21:40;19.90;99.90
6462;DHT22;3264;42.862;25.098;2022-09-09T06:24:10;20.10;99.90
6462;DHT22;3264;42.862;25.098;2022-09-09T06:26:40;20.40;99.90
6462;DHT22;3264;42.862;25.098;2022-09-09T06:29:09;20.70;99.90
6462;DHT22;3264;42.862;25.098;2022-09-09T06:31:37;20.90;99.90
6462;DHT22;3264;42.862;25.098;2022-09-09T06:34:31;21.20;99.90
6462;DHT22;3264;42.862;25.098;2022-09-09T06:37:01;21.50;99.90
6462;DHT22;3264;42.862;25.098;2022-09-09T06:39:55;21.90;99.90
6462;DHT22;3264;42.862;25.098;2022-09-09T06:42:22;22.30;99.90
6462;DHT22;3264;42.862;25.098;2022-09-09T06:51:36;22.40;97.80
6462;DHT22;3264;42.862;25.098;2022-09-09T06:54:10;22.90;98.80
6462;DHT22;3264;42.862;25.098;2022-09-09T07:00:00;23.50;97.10
6462;DHT22;3264;42.862;25.098;2022-09-09T07:09:16;24.60;96.80
6462;DHT22;3264;42.862;25.098;2022-09-09T07:11:45;24.20;95.20
6462;DHT22;3264;42.862;25.098;2022-09-09T07:17:35;24.60;94.70
6462;DHT22;3264;42.862;25.098;2022-09-09T07:20:05;25.00;95.50
6462;DHT22;3264;42.862;25.098;2022-09-09T07:22:34;25.50;95.30
6462;DHT22;3264;42.862;25.098;2022-09-09T07:25:03;25.60;95.70
6462;DHT22;3264;42.862;25.098;2022-09-09T07:27:32;25.90;94.60
6462;DHT22;3264;42.862;25.098;2022-09-09T07:30:00;26.20;93.40
6462;DHT22;3264;42.862;25.098;2022-09-09T07:32:29;26.20;94.30
6462;DHT22;3264;42.862;25.098;2022-09-09T07:34:58;26.20;94.30
6462;DHT22;3264;42.862;25.098;2022-09-09T07:37:31;26.40;93.50
6462;DHT22;3264;42.862;25.098;2022-09-09T07:43:15;27.00;93.10
6462;DHT22;3264;42.862;25.098;2022-09-09T07:45:45;27.20;92.80
6462;DHT22;3264;42.862;25.098;2022-09-09T07:48:13;27.10;92.10
6462;DHT22;3264;42.862;25.098;2022-09-09T08:03:09;28.40;84.50
6462;DHT22;3264;42.862;25.098;2022-09-09T08:05:37;28.30;85.50
6462;DHT22;3264;42.862;25.098;2022-09-09T08:08:06;28.40;84.80
6462;DHT22;3264;42.862;25.098;2022-09-09T08:10:35;28.70;88.20
6462;DHT22;3264;42.862;25.098;2022-09-09T08:13:03;28.80;84.90
6462;DHT22;3264;42.862;25.098;2022-09-09T08:15:32;28.70;87.90
6462;DHT22;3264;42.862;25.098;2022-09-09T08:18:01;29.20;88.10
6462;DHT22;3264;42.862;25.098;2022-09-09T08:20:31;29.10;85.50
6462;DHT22;3264;42.862;25.098;2022-09-09T08:26:16;29.60;82.10
6462;DHT22;3264;42.862;25.098;2022-09-09T08:28:48;29.70;87.30
6462;DHT22;3264;42.862;25.098;2022-09-09T08:33:48;29.90;82.90
6462;DHT22;3264;42.862;25.098;2022-09-09T08:36:19;29.90;85.20
6462;DHT22;3264;42.862;25.098;2022-09-09T08:38:49;29.80;86.20
6462;DHT22;3264;42.862;25.098;2022-09-09T08:44:59;30.40;85.10
6462;DHT22;3264;42.862;25.098;2022-09-09T08:47:57;30.00;87.50
6462;DHT22;3264;42.862;25.098;2022-09-09T08:50:41;30.20;82.60
6462;DHT22;3264;42.862;25.098;2022-09-09T08:53:28;30.20;84.60
6462;DHT22;3264;42.862;25.098;2022-09-09T08:59:30;30.60;82.70
6462;DHT22;3264;42.862;25.098;2022-09-09T09:02:04;30.40;80.10
6462;DHT22;3264;42.862;25.098;2022-09-09T09:04:56;30.60;83.30
6462;DHT22;3264;42.862;25.098;2022-09-09T09:07:54;30.10;77.20
6462;DHT22;3264;42.862;25.098;2022-09-09T09:13:50;30.00;76.80
6462;DHT22;3264;42.862;25.098;2022-09-09T09:19:42;31.00;79.40
6462;DHT22;3264;42.862;25.098;2022-09-09T09:22:17;30.80;76.30
6462;DHT22;3264;42.862;25.098;2022-09-09T09:25:15;31.00;77.20
6462;DHT22;3264;42.862;25.098;2022-09-09T09:28:18;30.70;74.30
6462;DHT22;3264;42.862;25.098;2022-09-09T09:30:53;31.00;73.70
6462;DHT22;3264;42.862;25.098;2022-09-09T09:33:27;31.20;74.80
6462;DHT22;3264;42.862;25.098;2022-09-09T09:35:58;30.90;72.00
6462;DHT22;3264;42.862;25.098;2022-09-09T09:42:09;31.20;66.60
6462;DHT22;3264;42.862;25.098;2022-09-09T09:44:46;31.30;69.70
6462;DHT22;3264;42.862;25.098;2022-09-09T09:57:52;32.20;67.60
6462;DHT22;3264;42.862;25.098;2022-09-09T10:09:30;31.80;65.70
6462;DHT22;3264;42.862;25.098;2022-09-09T10:12:19;31.30;62.30
6462;DHT22;3264;42.862;25.098;2022-09-09T10:15:10;31.00;64.20
6462;DHT22;3264;42.862;25.098;2022-09-09T10:17:52;31.70;64.70
6462;DHT22;3264;42.862;25.098;2022-09-09T10:20:32;32.00;64.00
6462;DHT22;3264;42.862;25.098;2022-09-09T10:23:12;32.20;61.30
6462;DHT22;3264;42.862;25.098;2022-09-09T10:26:05;31.70;59.20
6462;DHT22;3264;42.862;25.098;2022-09-09T10:29:03;32.40;60.00
6462;DHT22;3264;42.862;25.098;2022-09-09T10:31:45;32.60;58.20
6462;DHT22;3264;42.862;25.098;2022-09-09T10:34:35;32.20;62.60
6462;DHT22;3264;42.862;25.098;2022-09-09T10:37:18;32.60;62.70
6462;DHT22;3264;42.862;25.098;2022-09-09T10:39:52;32.20;58.60
6462;DHT22;3264;42.862;25.098;2022-09-09T10:42:30;32.10;61.90
6462;DHT22;3264;42.862;25.098;2022-09-09T10:45:08;32.30;65.90
6462;DHT22;3264;42.862;25.098;2022-09-09T10:50:55;32.60;61.10
6462;DHT22;3264;42.862;25.098;2022-09-09T10:53:28;32.90;62.20
6462;DHT22;3264;42.862;25.098;2022-09-09T10:56:05;32.80;65.70
6462;DHT22;3264;42.862;25.098;2022-09-09T10:58:40;32.20;61.90
6462;DHT22;3264;42.862;25.098;2022-09-09T11:01:15;32.60;66.30
6462;DHT22;3264;42.862;25.098;2022-09-09T11:03:59;32.90;64.80
6462;DHT22;3264;42.862;25.098;2022-09-09T11:06:34;31.50;68.00
6462;DHT22;3264;42.862;25.098;2022-09-09T11:09:04;32.00;63.80
6462;DHT22;3264;42.862;25.098;2022-09-09T11:11:36;32.10;62.30
6462;DHT22;3264;42.862;25.098;2022-09-09T11:14:19;32.50;62.80
6462;DHT22;3264;42.862;25.098;2022-09-09T11:16:50;32.10;62.40
6462;DHT22;3264;42.862;25.098;2022-09-09T11:19:26;32.00;59.70
6462;DHT22;3264;42.862;25.098;2022-09-09T11:21:57;31.70;58.10
6462;DHT22;3264;42.862;25.098;2022-09-09T11:31:27;31.20;61.50
6462;DHT22;3264;42.862;25.098;2022-09-09T11:40:19;31.90;66.00
6462;DHT22;3264;42.862;25.098;2022-09-09T11:43:02;32.10;61.90
6462;DHT22;3264;42.862;25.098;2022-09-09T11:45:51;32.00;67.70
6462;DHT22;3264;42.862;25.098;2022-09-09T11:51:56;32.00;60.20
6462;DHT22;3264;42.862;25.098;2022-09-09T11:57:36;32.10;60.60
6462;DHT22;3264;42.862;25.098;2022-09-09T12:00:27;31.60;59.30
6462;DHT22;3264;42.862;25.098;2022-09-09T12:03:08;31.40;62.30
6462;DHT22;3264;42.862;25.098;2022-09-09T12:06:08;31.20;63.30
6462;DHT22;3264;42.862;25.098;2022-09-09T12:08:47;31.40;65.80
6462;DHT22;3264;42.862;25.098;2022-09-09T12:11:45;30.70;66.20
6462;DHT22;3264;42.862;25.098;2022-09-09T12:18:14;31.00;65.90
6462;DHT22;3264;42.862;25.098;2022-09-09T12:20:54;31.10;64.20
6462;DHT22;3264;42.862;25.098;2022-09-09T12:23:32;30.90;67.20
6462;DHT22;3264;42.862;25.098;2022-09-09T12:30:15;30.20;71.00
6462;DHT22;3264;42.862;25.098;2022-09-09T12:32:44;30.20;72.50
6462;DHT22;3264;42.862;25.098;2022-09-09T12:35:15;30.20;75.30
6462;DHT22;3264;42.862;25.098;2022-09-09T12:37:50;30.10;79.40
6462;DHT22;3264;42.862;25.098;2022-09-09T12:40:22;30.30;75.90
6462;DHT22;3264;42.862;25.098;2022-09-09T12:43:20;30.60;73.00
6462;DHT22;3264;42.862;25.098;2022-09-09T12:49:46;30.30;74.10
6462;DHT22;3264;42.862;25.098;2022-09-09T12:54:59;30.10;74.90
6462;DHT22;3264;42.862;25.098;2022-09-09T12:57:40;30.10;77.20
6462;DHT22;3264;42.862;25.098;2022-09-09T13:00:48;29.90;79.00
6462;DHT22;3264;42.862;25.098;2022-09-09T13:03:27;29.60;82.00
6462;DHT22;3264;42.862;25.098;2022-09-09T13:06:11;29.50;83.20
6462;DHT22;3264;42.862;25.098;2022-09-09T13:08:40;29.50;83.90
6462;DHT22;3264;42.862;25.098;2022-09-09T13:11:13;29.60;85.70
6462;DHT22;3264;42.862;25.098;2022-09-09T13:13:42;29.60;87.50
6462;DHT22;3264;42.862;25.098;2022-09-09T13:16:22;29.40;78.30
6462;DHT22;3264;42.862;25.098;2022-09-09T13:52:48;28.80;83.90
6462;DHT22;3264;42.862;25.098;2022-09-09T13:55:18;28.60;89.00
6462;DHT22;3264;42.862;25.098;2022-09-09T13:57:58;28.40;89.80
6462;DHT22;3264;42.862;25.098;2022-09-09T14:00:59;28.20;91.00
6462;DHT22;3264;42.862;25.098;2022-09-09T14:04:04;28.10;92.00
6462;DHT22;3264;42.862;25.098;2022-09-09T14:06:40;27.90;92.60
6462;DHT22;3264;42.862;25.098;2022-09-09T14:09:15;27.70;94.00
6462;DHT22;3264;42.862;25.098;2022-09-09T14:12:00;27.50;94.60
6462;DHT22;3264;42.862;25.098;2022-09-09T14:14:28;27.30;92.90
6462;DHT22;3264;42.862;25.098;2022-09-09T14:16:56;27.20;91.80
6462;DHT22;3264;42.862;25.098;2022-09-09T14:19:24;27.00;93.90
6462;DHT22;3264;42.862;25.098;2022-09-09T14:21:53;26.80;94.40
6462;DHT22;3264;42.862;25.098;2022-09-09T14:24:23;26.70;95.50
6462;DHT22;3264;42.862;25.098;2022-09-09T14:26:52;26.60;96.70
6462;DHT22;3264;42.862;25.098;2022-09-09T14:29:45;26.60;98.00
6462;DHT22;3264;42.862;25.098;2022-09-09T14:36:13;26.40;98.00
6462;DHT22;3264;42.862;25.098;2022-09-09T14:38:42;26.20;98.30
6462;DHT22;3264;42.862;25.098;2022-09-09T14:41:14;26.30;98.50
6462;DHT22;3264;42.862;25.098;2022-09-09T14:43:46;26.30;98.00
6462;DHT22;3264;42.862;25.098;2022-09-09T14:46:16;26.30;99.00
6462;DHT22;3264;42.862;25.098;2022-09-09T14:48:45;26.40;98.30
6462;DHT22;3264;42.862;25.098;2022-09-09T14:58:00;26.10;99.00
6462;DHT22;3264;42.862;25.098;2022-09-09T15:00:29;26.00;98.90
6462;DHT22;3264;42.862;25.098;2022-09-09T15:02:57;25.90;99.70
6462;DHT22;3264;42.862;25.098;2022-09-09T15:08:49;25.60;99.90
6462;DHT22;3264;42.862;25.098;2022-09-09T15:11:19;25.50;99.90
6462;DHT22;3264;42.862;25.098;2022-09-09T15:13:51;25.40;99.90
6462;DHT22;3264;42.862;25.098;2022-09-09T15:16:24;25.50;99.90
6462;DHT22;3264;42.862;25.098;2022-09-09T15:18:55;25.40;99.90
6462;DHT22;3264;42.862;25.098;2022-09-09T15:25:09;25.20;99.90
6462;DHT22;3264;42.862;25.098;2022-09-09T15:27:44;25.10;99.90
6462;DHT22;3264;42.862;25.098;2022-09-09T15:30:14;25.00;99.90
6462;DHT22;3264;42.862;25.098;2022-09-09T15:32:43;24.90;99.90
6462;DHT22;3264;42.862;25.098;2022-09-09T15:35:11;24.90;99.90
6462;DHT22;3264;42.862;25.098;2022-09-09T15:37:40;24.90;99.90
6462;DHT22;3264;42.862;25.098;2022-09-09T15:40:09;24.70;99.90
6462;DHT22;3264;42.862;25.098;2022-09-09T15:42:39;24.60;99.90
6462;DHT22;3264;42.862;25.098;2022-09-09T15:45:08;24.60;99.90
6462;DHT22;3264;42.862;25.098;2022-09-09T15:47:38;24.50;99.90
6462;DHT22;3264;42.862;25.098;2022-09-09T15:50:07;24.50;99.90
6462;DHT22;3264;42.862;25.098;2022-09-09T15:52:36;24.50;99.90
6462;DHT22;3264;42.862;25.098;2022-09-09T15:55:05;24.40;99.90
6462;DHT22;3264;42.862;25.098;2022-09-09T15:57:34;24.50;99.90
6462;DHT22;3264;42.862;25.098;2022-09-09T16:00:03;24.50;99.90
6462;DHT22;3264;42.862;25.098;2022-09-09T16:02:32;24.40;99.90
6462;DHT22;3264;42.862;25.098;2022-09-09T16:05:01;24.30;99.90
6462;DHT22;3264;42.862;25.098;2022-09-09T16:07:32;24.20;99.90
6462;DHT22;3264;42.862;25.098;2022-09-09T16:10:16;24.10;99.90
6462;DHT22;3264;42.862;25.098;2022-09-09T16:12:49;24.00;99.90
6462;DHT22;3264;42.862;25.098;2022-09-09T16:15:17;23.90;99.90
6462;DHT22;3264;42.862;25.098;2022-09-09T16:17:49;23.90;99.90
6462;DHT22;3264;42.862;25.098;2022-09-09T16:20:28;23.80;99.90
6462;DHT22;3264;42.862;25.098;2022-09-09T16:22:58;23.80;99.90
6462;DHT22;3264;42.862;25.098;2022-09-09T16:25:44;23.70;99.90
6462;DHT22;3264;42.862;25.098;2022-09-09T16:28:35;23.70;99.90
6462;DHT22;3264;42.862;25.098;2022-09-09T16:31:05;23.50;99.90
6462;DHT22;3264;42.862;25.098;2022-09-09T16:33:48;23.60;99.90
6462;DHT22;3264;42.862;25.098;2022-09-09T16:36:19;23.50;99.90
6462;DHT22;3264;42.862;25.098;2022-09-09T16:38:47;23.30;99.90
6462;DHT22;3264;42.862;25.098;2022-09-09T16:41:16;23.20;99.90
6462;DHT22;3264;42.862;25.098;2022-09-09T16:43:46;23.00;99.90
6462;DHT22;3264;42.862;25.098;2022-09-09T16:46:18;23.00;99.90
6462;DHT22;3264;42.862;25.098;2022-09-09T16:48:52;23.00;99.90
6462;DHT22;3264;42.862;25.098;2022-09-09T16:52:02;22.90;99.90
6462;DHT22;3264;42.862;25.098;2022-09-09T16:54:53;22.90;99.90
6462;DHT22;3264;42.862;25.098;2022-09-09T16:57:33;22.90;99.90
6462;DHT22;3264;42.862;25.098;2022-09-09T17:00:17;22.90;99.90
6462;DHT22;3264;42.862;25.098;2022-09-09T17:03:02;22.70;99.90
6462;DHT22;3264;42.862;25.098;2022-09-09T17:05:58;22.80;99.90
6462;DHT22;3264;42.862;25.098;2022-09-09T17:08:59;22.50;99.90
6462;DHT22;3264;42.862;25.098;2022-09-09T17:11:43;22.30;99.90
6462;DHT22;3264;42.862;25.098;2022-09-09T17:15:03;22.20;99.90
6462;DHT22;3264;42.862;25.098;2022-09-09T17:17:48;22.10;99.90
6462;DHT22;3264;42.862;25.098;2022-09-09T17:23:42;21.90;99.90
6462;DHT22;3264;42.862;25.098;2022-09-09T17:42:18;21.30;99.90
6462;DHT22;3264;42.862;25.098;2022-09-09T17:48:13;21.00;99.90
6462;DHT22;3264;42.862;25.098;2022-09-09T17:53:46;20.90;99.90
6462;DHT22;3264;42.862;25.098;2022-09-09T17:56:37;20.80;99.90
6462;DHT22;3264;42.862;25.098;2022-09-09T17:59:10;21.00;99.90
6462;DHT22;3264;42.862;25.098;2022-09-09T18:01:57;20.80;99.90
6462;DHT22;3264;42.862;25.098;2022-09-09T18:04:38;20.60;99.90
6462;DHT22;3264;42.862;25.098;2022-09-09T18:07:25;20.50;99.90
6462;DHT22;3264;42.862;25.098;2022-09-09T18:13:19;20.20;99.90
6462;DHT22;3264;42.862;25.098;2022-09-09T18:19:10;20.10;99.90
6462;DHT22;3264;42.862;25.098;2022-09-09T18:21:41;20.00;99.90
6462;DHT22;3264;42.862;25.098;2022-09-09T18:24:45;20.10;99.90
6462;DHT22;3264;42.862;25.098;2022-09-09T18:27:22;20.20;99.90
6462;DHT22;3264;42.862;25.098;2022-09-09T18:30:04;20.00;99.90
6462;DHT22;3264;42.862;25.098;2022-09-09T18:32:46;20.00;99.90
6462;DHT22;3264;42.862;25.098;2022-09-09T18:35:18;19.80;99.90
6462;DHT22;3264;42.862;25.098;2022-09-09T18:37:47;19.80;99.90
6462;DHT22;3264;42.862;25.098;2022-09-09T18:40:16;19.70;99.90
6462;DHT22;3264;42.862;25.098;2022-09-09T18:42:46;19.70;99.90
6462;DHT22;3264;42.862;25.098;2022-09-09T18:45:17;19.70;99.90
6462;DHT22;3264;42.862;25.098;2022-09-09T18:47:54;19.60;99.90
6462;DHT22;3264;42.862;25.098;2022-09-09T18:50:44;19.70;99.90
6462;DHT22;3264;42.862;25.098;2022-09-09T18:53:14;19.70;99.90
6462;DHT22;3264;42.862;25.098;2022-09-09T18:55:57;19.50;99.90
6462;DHT22;3264;42.862;25.098;2022-09-09T19:08:39;19.30;99.90
6462;DHT22;3264;42.862;25.098;2022-09-09T19:11:12;19.10;99.90
6462;DHT22;3264;42.862;25.098;2022-09-09T19:13:41;19.10;99.90
6462;DHT22;3264;42.862;25.098;2022-09-09T19:16:16;19.10;99.90
6462;DHT22;3264;42.862;25.098;2022-09-09T19:22:20;19.00;99.90
6462;DHT22;3264;42.862;25.098;2022-09-09T19:27:54;18.80;99.90
6462;DHT22;3264;42.862;25.098;2022-09-09T19:30:31;19.00;99.90
6462;DHT22;3264;42.862;25.098;2022-09-09T19:33:06;19.00;99.90
6462;DHT22;3264;42.862;25.098;2022-09-09T19:35:37;18.80;99.90
6462;DHT22;3264;42.862;25.098;2022-09-09T19:38:07;18.80;99.90
6462;DHT22;3264;42.862;25.098;2022-09-09T19:40:48;18.70;99.90
6462;DHT22;3264;42.862;25.098;2022-09-09T19:43:21;18.60;99.90
6462;DHT22;3264;42.862;25.098;2022-09-09T19:46:02;18.60;99.90
6462;DHT22;3264;42.862;25.098;2022-09-09T19:48:46;18.70;99.90
6462;DHT22;3264;42.862;25.098;2022-09-09T19:51:30;18.70;99.90
6462;DHT22;3264;42.862;25.098;2022-09-09T20:09:14;18.60;99.90
6462;DHT22;3264;42.862;25.098;2022-09-09T20:11:42;18.50;99.90
6462;DHT22;3264;42.862;25.098;2022-09-09T20:14:12;18.40;99.90
6462;DHT22;3264;42.862;25.098;2022-09-09T20:16:46;18.30;99.90
6462;DHT22;3264;42.862;25.098;2022-09-09T20:19:15;18.40;99.90
6462;DHT22;3264;42.862;25.098;2022-09-09T20:21:44;18.40;99.90
6462;DHT22;3264;42.862;25.098;2022-09-09T20:24:17;18.30;99.90
6462;DHT22;3264;42.862;25.098;2022-09-09T20:26:46;18.30;99.90
6462;DHT22;3264;42.862;25.098;2022-09-09T20:29:45;18.30;99.90
6462;DHT22;3264;42.862;25.098;2022-09-09T20:35:36;18.30;99.90
6462;DHT22;3264;42.862;25.098;2022-09-09T20:38:05;18.20;99.90
6462;DHT22;3264;42.862;25.098;2022-09-09T20:40:36;18.30;99.90
6462;DHT22;3264;42.862;25.098;2022-09-09T20:53:16;18.20;99.90
6462;DHT22;3264;42.862;25.098;2022-09-09T20:55:45;18.10;99.90
6462;DHT22;3264;42.862;25.098;2022-09-09T20:58:17;18.00;99.90
6462;DHT22;3264;42.862;25.098;2022-09-09T21:00:45;18.00;99.90
6462;DHT22;3264;42.862;25.098;2022-09-09T21:03:14;18.00;99.90
6462;DHT22;3264;42.862;25.098;2022-09-09T21:05:43;17.90;99.90
6462;DHT22;3264;42.862;25.098;2022-09-09T21:08:13;17.90;99.90
6462;DHT22;3264;42.862;25.098;2022-09-09T21:10:44;17.90;99.90
6462;DHT22;3264;42.862;25.098;2022-09-09T21:13:13;17.80;99.90
6462;DHT22;3264;42.862;25.098;2022-09-09T21:15:43;17.70;99.90
6462;DHT22;3264;42.862;25.098;2022-09-09T21:18:13;17.70;99.90
6462;DHT22;3264;42.862;25.098;2022-09-09T21:20:42;17.70;99.90
6462;DHT22;3264;42.862;25.098;2022-09-09T21:23:20;17.60;99.90
6462;DHT22;3264;42.862;25.098;2022-09-09T21:25:55;17.70;99.90
6462;DHT22;3264;42.862;25.098;2022-09-09T21:28:44;17.70;99.90
6462;DHT22;3264;42.862;25.098;2022-09-09T21:31:18;17.70;99.90
6462;DHT22;3264;42.862;25.098;2022-09-09T21:33:47;17.70;99.90
6462;DHT22;3264;42.862;25.098;2022-09-09T21:36:16;17.80;99.90
6462;DHT22;3264;42.862;25.098;2022-09-09T21:38:44;17.60;99.90
6462;DHT22;3264;42.862;25.098;2022-09-09T21:41:15;17.60;99.90
6462;DHT22;3264;42.862;25.098;2022-09-09T21:43:44;17.40;99.90